Time;durP1;ratioP1;P1;durP2;ratioP2;P2;SDS_P1;SDS_P2;PMS_P1;PMS_P2;Temp;Humidity;BMP_temperature;BMP_pressure;BME280_temperature;BME280_humidity;BME280_pressure;Samples;Min_cycle;Max_cycle;Signal;HPM_P1;HPM_P2
2022/08/09 00:02:10;;;;;;;7.40;2.45;;;;;;;;;;5034468;28;20037;-77
2022/08/09 00:04:36;;;;;;;4.43;2.65;;;;;;;;;;5032746;28;20045;-76
2022/08/09 00:07:03;;;;;;;6.10;2.47;;;;;;;;;;5024954;28;20374;-76
2022/08/09 00:09:32;;;;;;;5.15;2.40;;;;;;;;;;5030281;28;20108;-76
2022/08/09 00:11:57;;;;;;;5.93;2.35;;;;;;;;;;5013990;28;20036;-77
2022/08/09 00:14:22;;;;;;;2.97;2.10;;;;;;;;;;5031743;28;20049;-76
2022/08/09 00:16:48;;;;;;;3.40;2.35;;;;;;;;;;5027684;28;20029;-77
2022/08/09 00:19:14;;;;;;;3.80;2.40;;;;;;;;;;5029954;28;20040;-78
2022/08/09 00:21:39;;;;;;;6.00;2.60;;;;;;;;;;5024883;28;20034;-77
2022/08/09 00:24:07;;;;;;;3.72;2.40;;;;;;;;;;5026318;28;20333;-76
2022/08/09 00:26:34;;;;;;;3.83;2.35;;;;;;;;;;5008985;28;20071;-78
2022/08/09 00:29:03;;;;;;;6.00;2.22;;;;;;;;;;5034414;28;20063;-76
2022/08/09 00:31:37;;;;;;;3.88;2.47;;;;;;;;;;5026493;28;20202;-77
2022/08/09 00:34:03;;;;;;;6.72;2.42;;;;;;;;;;5029777;28;20189;-76
2022/08/09 00:36:28;;;;;;;4.45;2.47;;;;;;;;;;5029167;28;20198;-76
2022/08/09 00:38:53;;;;;;;5.43;2.70;;;;;;;;;;5025989;28;20045;-76
2022/08/09 00:41:22;;;;;;;5.25;2.45;;;;;;;;;;5007283;28;20041;-77
2022/08/09 00:43:49;;;;;;;5.13;2.58;;;;;;;;;;5032896;28;20033;-77
2022/08/09 00:46:15;;;;;;;5.07;2.42;;;;;;;;;;5036865;28;20025;-76
2022/08/09 00:48:40;;;;;;;5.07;2.50;;;;;;;;;;5009118;28;20212;-76
2022/08/09 00:51:06;;;;;;;8.02;2.50;;;;;;;;;;5030630;28;20025;-76
2022/08/09 00:53:34;;;;;;;4.65;2.50;;;;;;;;;;5036588;28;20105;-76
2022/08/09 00:56:00;;;;;;;5.93;2.70;;;;;;;;;;5030426;28;20056;-76
2022/08/09 00:58:26;;;;;;;4.57;2.45;;;;;;;;;;5027113;28;20029;-77
2022/08/09 01:00:57;;;;;;;4.20;2.53;;;;;;;;;;5028252;28;20021;-76
2022/08/09 01:03:33;;;;;;;6.07;2.60;;;;;;;;;;5030255;28;20036;-77
2022/08/09 01:06:10;;;;;;;5.90;2.60;;;;;;;;;;5035086;28;20083;-79
2022/08/09 01:08:49;;;;;;;5.63;2.72;;;;;;;;;;5010166;28;20416;-78
2022/08/09 01:11:53;;;;;;;5.90;2.70;;;;;;;;;;5025531;28;20097;-77
2022/08/09 01:14:32;;;;;;;7.70;2.65;;;;;;;;;;5010690;28;20068;-77
2022/08/09 01:17:06;;;;;;;6.32;2.40;;;;;;;;;;5022389;28;20026;-80
2022/08/09 01:19:35;;;;;;;4.70;2.45;;;;;;;;;;5006822;28;20025;-82
2022/08/09 01:22:20;;;;;;;3.78;2.55;;;;;;;;;;5025435;28;20022;-79
2022/08/09 01:25:13;;;;;;;3.78;2.50;;;;;;;;;;5029145;28;20056;-80
2022/08/09 01:27:40;;;;;;;7.57;2.60;;;;;;;;;;5034271;28;20026;-80
2022/08/09 01:30:07;;;;;;;3.83;2.50;;;;;;;;;;5036363;28;20045;-81
2022/08/09 01:32:44;;;;;;;4.25;2.50;;;;;;;;;;5025903;28;20484;-79
2022/08/09 01:35:35;;;;;;;3.95;2.20;;;;;;;;;;5032240;28;20040;-80
2022/08/09 01:38:05;;;;;;;7.70;2.65;;;;;;;;;;5026935;28;20094;-76
2022/08/09 01:40:34;;;;;;;5.53;2.40;;;;;;;;;;5032131;28;20025;-82
2022/08/09 01:43:01;;;;;;;4.32;2.50;;;;;;;;;;5025624;28;20022;-81
2022/08/09 01:45:27;;;;;;;4.43;2.30;;;;;;;;;;5030808;28;20033;-82
2022/08/09 01:47:55;;;;;;;6.60;2.50;;;;;;;;;;5029509;28;20089;-77
2022/08/09 01:50:22;;;;;;;4.03;2.15;;;;;;;;;;5021816;28;20064;-77
2022/08/09 01:52:49;;;;;;;4.50;2.50;;;;;;;;;;5030503;28;20131;-76
2022/08/09 01:55:16;;;;;;;7.05;2.70;;;;;;;;;;5033639;28;20026;-82
2022/08/09 01:57:44;;;;;;;4.13;2.40;;;;;;;;;;5030933;28;20084;-81
2022/08/09 02:00:11;;;;;;;5.28;2.47;;;;;;;;;;5027477;28;20032;-80
2022/08/09 02:02:43;;;;;;;4.43;2.38;;;;;;;;;;5029962;28;20071;-81
2022/08/09 02:05:10;;;;;;;4.18;2.50;;;;;;;;;;5029330;28;20113;-82
2022/08/09 02:07:42;;;;;;;4.55;2.20;;;;;;;;;;5027704;28;20363;-81
2022/08/09 02:10:22;;;;;;;4.18;2.30;;;;;;;;;;5034743;28;20029;-80
2022/08/09 02:12:49;;;;;;;4.60;2.60;;;;;;;;;;5032299;28;20060;-80
2022/08/09 02:15:19;;;;;;;3.75;2.38;;;;;;;;;;5034523;28;20040;-81
2022/08/09 02:17:45;;;;;;;6.03;2.55;;;;;;;;;;5031240;28;20105;-78
2022/08/09 02:20:11;;;;;;;4.90;2.55;;;;;;;;;;5035202;28;20033;-81
2022/08/09 02:23:35;;;;;;;2.90;2.30;;;;;;;;;;5009319;28;20084;-76
2022/08/09 02:26:02;;;;;;;5.85;2.60;;;;;;;;;;4960568;28;20043;-77
2022/08/09 02:28:42;;;;;;;5.60;2.20;;;;;;;;;;5012529;28;20037;-78
2022/08/09 02:31:14;;;;;;;4.63;2.40;;;;;;;;;;5031615;28;20030;-77
2022/08/09 02:33:43;;;;;;;7.05;2.50;;;;;;;;;;5032638;28;20240;-76
2022/08/09 02:36:14;;;;;;;5.35;2.28;;;;;;;;;;5007311;28;20018;-76
2022/08/09 02:38:49;;;;;;;3.50;2.20;;;;;;;;;;5030244;28;20030;-76
2022/08/09 02:41:23;;;;;;;6.45;2.58;;;;;;;;;;5027433;28;20026;-77
2022/08/09 02:43:56;;;;;;;4.22;2.30;;;;;;;;;;5013584;28;20264;-77
2022/08/09 02:46:28;;;;;;;5.10;2.40;;;;;;;;;;5027454;28;20026;-77
2022/08/09 02:48:57;;;;;;;4.60;2.50;;;;;;;;;;5010921;28;20021;-78
2022/08/09 02:51:24;;;;;;;5.82;2.47;;;;;;;;;;5013121;28;20058;-80
2022/08/09 02:53:54;;;;;;;3.67;2.30;;;;;;;;;;5033137;28;20013;-79
2022/08/09 02:56:21;;;;;;;5.90;2.50;;;;;;;;;;5040259;28;20037;-81
2022/08/09 02:58:49;;;;;;;6.53;2.33;;;;;;;;;;5033675;28;20017;-81
2022/08/09 03:01:17;;;;;;;4.78;2.50;;;;;;;;;;5034651;28;20066;-81
2022/08/09 03:03:44;;;;;;;4.45;2.42;;;;;;;;;;5033136;28;20029;-82
2022/08/09 03:06:13;;;;;;;3.92;2.30;;;;;;;;;;5029216;28;20084;-77
2022/08/09 03:08:42;;;;;;;7.22;2.72;;;;;;;;;;5028001;28;20029;-79
2022/08/09 03:11:09;;;;;;;5.32;2.60;;;;;;;;;;5034007;28;20028;-79
2022/08/09 03:13:35;;;;;;;6.53;2.50;;;;;;;;;;5012872;28;20017;-82
2022/08/09 03:16:01;;;;;;;6.45;2.40;;;;;;;;;;5033895;28;20025;-80
2022/08/09 03:18:27;;;;;;;5.50;2.30;;;;;;;;;;5030954;28;20038;-79
2022/08/09 03:20:55;;;;;;;5.38;2.50;;;;;;;;;;5026148;28;20071;-80
2022/08/09 03:23:20;;;;;;;4.75;2.22;;;;;;;;;;5025449;28;20033;-80
2022/08/09 03:25:50;;;;;;;6.15;2.63;;;;;;;;;;5025338;28;20040;-80
2022/08/09 03:28:16;;;;;;;5.78;2.60;;;;;;;;;;5025383;28;20018;-79
2022/08/09 03:30:43;;;;;;;4.65;2.65;;;;;;;;;;5036044;28;20100;-80
2022/08/09 03:33:09;;;;;;;5.68;2.60;;;;;;;;;;5033044;28;20022;-80
2022/08/09 03:35:34;;;;;;;5.55;2.80;;;;;;;;;;5034373;28;20329;-79
2022/08/09 03:38:00;;;;;;;6.25;2.80;;;;;;;;;;5035550;28;20052;-79
2022/08/09 03:40:26;;;;;;;5.72;2.63;;;;;;;;;;5025738;28;20313;-79
2022/08/09 03:42:51;;;;;;;5.13;2.60;;;;;;;;;;5026992;28;20029;-78
2022/08/09 03:45:19;;;;;;;5.13;2.67;;;;;;;;;;5030513;28;20094;-77
2022/08/09 03:47:48;;;;;;;6.05;2.60;;;;;;;;;;5012481;28;20045;-75
2022/08/09 03:50:15;;;;;;;4.93;2.83;;;;;;;;;;5028348;28;20317;-76
2022/08/09 03:52:41;;;;;;;5.28;2.65;;;;;;;;;;5029145;28;20040;-74
2022/08/09 03:55:09;;;;;;;8.30;2.92;;;;;;;;;;5032049;28;20025;-74
2022/08/09 03:57:34;;;;;;;7.50;2.88;;;;;;;;;;5027852;28;20018;-75
2022/08/09 04:00:00;;;;;;;5.80;2.75;;;;;;;;;;5030481;28;20056;-74
2022/08/09 04:02:29;;;;;;;7.72;2.72;;;;;;;;;;5029668;28;20221;-76
2022/08/09 04:04:59;;;;;;;4.10;2.88;;;;;;;;;;5029513;28;20057;-74
2022/08/09 04:07:27;;;;;;;4.45;2.60;;;;;;;;;;5029699;28;20025;-75
2022/08/09 04:09:52;;;;;;;5.55;2.92;;;;;;;;;;5031041;28;20188;-75
2022/08/09 04:12:52;;;;;;;5.78;2.83;;;;;;;;;;5027775;28;20030;-76
2022/08/09 04:15:21;;;;;;;5.07;2.63;;;;;;;;;;5026441;28;20049;-77
2022/08/09 04:17:46;;;;;;;5.18;2.80;;;;;;;;;;5030361;28;20036;-76
2022/08/09 04:20:12;;;;;;;7.93;2.90;;;;;;;;;;5036023;28;20688;-77
2022/08/09 04:22:39;;;;;;;5.38;2.90;;;;;;;;;;5024425;28;20040;-77
2022/08/09 04:25:07;;;;;;;4.75;2.95;;;;;;;;;;5025899;28;20037;-76
2022/08/09 04:27:32;;;;;;;8.80;3.00;;;;;;;;;;5022781;28;20030;-76
2022/08/09 04:29:58;;;;;;;8.13;2.80;;;;;;;;;;5029872;28;20033;-76
2022/08/09 04:32:28;;;;;;;7.25;3.17;;;;;;;;;;5039634;28;20037;-75
2022/08/09 04:34:54;;;;;;;10.20;2.67;;;;;;;;;;5027913;28;20026;-76
2022/08/09 04:37:19;;;;;;;10.43;2.80;;;;;;;;;;5030911;28;20075;-76
2022/08/09 04:39:45;;;;;;;12.85;3.13;;;;;;;;;;5034574;28;20029;-76
2022/08/09 04:42:10;;;;;;;15.00;3.30;;;;;;;;;;5031939;28;20025;-75
2022/08/09 04:44:35;;;;;;;13.07;3.00;;;;;;;;;;5027620;28;20032;-76
2022/08/09 04:47:01;;;;;;;7.18;3.20;;;;;;;;;;5027002;28;20049;-77
2022/08/09 04:49:32;;;;;;;6.40;2.80;;;;;;;;;;5034859;28;20033;-76
2022/08/09 04:51:57;;;;;;;12.52;2.80;;;;;;;;;;5027785;28;20029;-75
2022/08/09 04:54:22;;;;;;;17.02;3.22;;;;;;;;;;5035030;28;20059;-76
2022/08/09 04:56:48;;;;;;;16.38;3.20;;;;;;;;;;5037360;28;20029;-75
2022/08/09 04:59:13;;;;;;;8.52;2.90;;;;;;;;;;5038360;28;20029;-76
2022/08/09 05:01:38;;;;;;;5.78;2.97;;;;;;;;;;5028346;28;20099;-76
2022/08/09 05:04:04;;;;;;;7.88;3.00;;;;;;;;;;5030606;28;20041;-76
2022/08/09 05:06:29;;;;;;;8.02;3.30;;;;;;;;;;5030079;28;20021;-76
2022/08/09 05:08:55;;;;;;;10.18;2.97;;;;;;;;;;5024424;28;20086;-76
2022/08/09 05:11:21;;;;;;;11.65;3.20;;;;;;;;;;5010003;28;20065;-76
2022/08/09 05:13:46;;;;;;;15.27;3.00;;;;;;;;;;5004569;28;20030;-76
2022/08/09 05:16:12;;;;;;;8.00;2.80;;;;;;;;;;5025316;28;20033;-76
2022/08/09 05:18:37;;;;;;;7.60;3.00;;;;;;;;;;5027086;28;20037;-77
2022/08/09 05:21:08;;;;;;;5.93;2.85;;;;;;;;;;5026375;28;20063;-78
2022/08/09 05:23:33;;;;;;;7.25;3.10;;;;;;;;;;5026039;28;20132;-76
2022/08/09 05:25:59;;;;;;;5.93;3.00;;;;;;;;;;5022743;28;20113;-76
2022/08/09 05:28:24;;;;;;;5.45;3.00;;;;;;;;;;5024620;28;20026;-79
2022/08/09 05:30:49;;;;;;;6.70;3.10;;;;;;;;;;5032506;28;20092;-78
2022/08/09 05:33:15;;;;;;;4.95;2.75;;;;;;;;;;5038238;28;20037;-78
2022/08/09 05:35:40;;;;;;;3.92;2.85;;;;;;;;;;5033813;28;20040;-78
2022/08/09 05:38:05;;;;;;;7.50;2.83;;;;;;;;;;5026225;28;20058;-75
2022/08/09 05:40:31;;;;;;;7.70;2.95;;;;;;;;;;5028887;28;20025;-78
2022/08/09 05:42:56;;;;;;;10.43;3.42;;;;;;;;;;5029606;28;20300;-80
2022/08/09 05:45:25;;;;;;;18.08;4.22;;;;;;;;;;5026205;28;20057;-77
2022/08/09 05:47:53;;;;;;;6.32;3.00;;;;;;;;;;5023496;28;20336;-78
2022/08/09 05:50:18;;;;;;;6.20;2.88;;;;;;;;;;5028963;28;20033;-80
2022/08/09 05:52:44;;;;;;;5.80;2.90;;;;;;;;;;5025963;28;20030;-76
2022/08/09 05:55:10;;;;;;;13.93;3.17;;;;;;;;;;5020509;28;20133;-79
2022/08/09 05:57:36;;;;;;;4.28;3.00;;;;;;;;;;5020811;28;20352;-79
2022/08/09 06:00:04;;;;;;;8.85;3.17;;;;;;;;;;5029648;28;20192;-78
2022/08/09 06:02:30;;;;;;;7.10;3.20;;;;;;;;;;5028268;28;20084;-80
2022/08/09 06:04:55;;;;;;;7.30;3.72;;;;;;;;;;5033203;28;20045;-77
2022/08/09 06:07:21;;;;;;;6.43;3.20;;;;;;;;;;5030375;28;20036;-79
2022/08/09 06:09:46;;;;;;;6.85;3.15;;;;;;;;;;5034537;28;20037;-78
2022/08/09 06:12:11;;;;;;;9.63;3.15;;;;;;;;;;5030454;28;20021;-75
2022/08/09 06:14:38;;;;;;;10.32;3.10;;;;;;;;;;5026291;28;20021;-79
2022/08/09 06:17:04;;;;;;;5.60;3.28;;;;;;;;;;5030997;28;20129;-80
2022/08/09 06:19:29;;;;;;;6.80;3.28;;;;;;;;;;5030508;28;20038;-76
2022/08/09 06:21:54;;;;;;;6.57;3.00;;;;;;;;;;5031818;28;20079;-79
2022/08/09 06:24:20;;;;;;;7.05;3.40;;;;;;;;;;5030025;28;20092;-76
2022/08/09 06:26:46;;;;;;;12.68;3.83;;;;;;;;;;5036357;28;20233;-79
2022/08/09 06:29:11;;;;;;;10.85;3.00;;;;;;;;;;5037409;28;20317;-80
2022/08/09 06:31:37;;;;;;;7.38;3.30;;;;;;;;;;5038477;28;20021;-77
2022/08/09 06:34:03;;;;;;;7.05;3.10;;;;;;;;;;5038448;28;20025;-81
2022/08/09 06:36:29;;;;;;;8.27;2.90;;;;;;;;;;5021223;28;20041;-75
2022/08/09 06:38:54;;;;;;;7.47;3.33;;;;;;;;;;5036314;28;20036;-74
2022/08/09 06:41:20;;;;;;;5.82;2.97;;;;;;;;;;5034229;28;20044;-75
2022/08/09 06:43:47;;;;;;;7.20;3.20;;;;;;;;;;5039378;28;20416;-75
2022/08/09 06:46:12;;;;;;;5.90;3.10;;;;;;;;;;5033693;28;20029;-74
2022/08/09 06:48:39;;;;;;;6.47;3.15;;;;;;;;;;5027014;28;20052;-75
2022/08/09 06:51:05;;;;;;;6.75;3.20;;;;;;;;;;5031430;28;20093;-76
2022/08/09 06:53:31;;;;;;;9.77;3.30;;;;;;;;;;5009149;28;20046;-77
2022/08/09 06:55:58;;;;;;;6.53;3.10;;;;;;;;;;5031529;28;20333;-74
2022/08/09 06:58:23;;;;;;;6.63;3.20;;;;;;;;;;5025008;28;20217;-75
2022/08/09 07:00:48;;;;;;;6.25;3.17;;;;;;;;;;5030252;28;20033;-76
2022/08/09 07:03:14;;;;;;;8.40;3.08;;;;;;;;;;5028760;28;20030;-75
2022/08/09 07:05:39;;;;;;;8.40;3.10;;;;;;;;;;5025620;28;20053;-76
2022/08/09 07:08:04;;;;;;;5.97;3.15;;;;;;;;;;5024311;28;20025;-78
2022/08/09 07:10:31;;;;;;;8.68;3.40;;;;;;;;;;5033409;28;20028;-75
2022/08/09 07:12:56;;;;;;;5.22;3.03;;;;;;;;;;5031380;28;20056;-75
2022/08/09 07:15:21;;;;;;;8.70;3.50;;;;;;;;;;5030936;28;20356;-73
2022/08/09 07:17:50;;;;;;;8.02;3.33;;;;;;;;;;5034056;28;20079;-74
2022/08/09 07:20:16;;;;;;;7.78;3.10;;;;;;;;;;5031926;28;20033;-75
2022/08/09 07:22:41;;;;;;;9.05;3.17;;;;;;;;;;5036872;28;20021;-75
2022/08/09 07:25:07;;;;;;;6.88;2.90;;;;;;;;;;5024039;28;20248;-77
2022/08/09 07:27:32;;;;;;;6.85;3.25;;;;;;;;;;5016088;28;20034;-76
2022/08/09 07:29:59;;;;;;;6.32;3.10;;;;;;;;;;5026477;28;20431;-76
2022/08/09 07:32:27;;;;;;;5.65;2.95;;;;;;;;;;5026073;28;20293;-75
2022/08/09 07:34:53;;;;;;;6.95;3.00;;;;;;;;;;5036761;28;20025;-75
2022/08/09 07:37:18;;;;;;;5.57;3.05;;;;;;;;;;5037318;28;20017;-76
2022/08/09 07:39:43;;;;;;;7.30;3.03;;;;;;;;;;5038715;28;20041;-75
2022/08/09 07:42:10;;;;;;;5.80;3.30;;;;;;;;;;5036066;28;20025;-78
2022/08/09 07:44:35;;;;;;;6.43;2.90;;;;;;;;;;5021016;28;20056;-77
2022/08/09 07:47:01;;;;;;;7.93;2.90;;;;;;;;;;5036369;28;20205;-75
2022/08/09 07:49:27;;;;;;;5.10;2.80;;;;;;;;;;5032776;28;20197;-75
2022/08/09 07:51:52;;;;;;;8.07;2.90;;;;;;;;;;5031723;28;20056;-76
2022/08/09 07:54:20;;;;;;;7.18;2.95;;;;;;;;;;5033914;28;20329;-79
2022/08/09 07:56:46;;;;;;;6.85;2.95;;;;;;;;;;5034583;28;20036;-76
2022/08/09 07:59:11;;;;;;;8.73;3.20;;;;;;;;;;5029515;28;20317;-75
2022/08/09 08:01:37;;;;;;;8.35;2.95;;;;;;;;;;5035560;28;20017;-75
2022/08/09 08:04:02;;;;;;;10.40;3.05;;;;;;;;;;5035949;28;20021;-77
2022/08/09 08:06:29;;;;;;;8.02;2.90;;;;;;;;;;5029727;28;20081;-76
2022/08/09 08:08:54;;;;;;;34.03;3.92;;;;;;;;;;5026126;28;20029;-75
2022/08/09 08:11:20;;;;;;;35.22;4.63;;;;;;;;;;5029316;28;20260;-76
2022/08/09 08:13:45;;;;;;;12.07;3.20;;;;;;;;;;5027048;28;20025;-75
2022/08/09 08:16:11;;;;;;;13.35;3.08;;;;;;;;;;5026439;28;20321;-75
2022/08/09 08:18:36;;;;;;;15.35;3.20;;;;;;;;;;5035325;28;20040;-75
2022/08/09 08:21:02;;;;;;;6.03;2.60;;;;;;;;;;5035757;28;20022;-75
2022/08/09 08:23:27;;;;;;;10.23;2.55;;;;;;;;;;5031154;28;20165;-76
2022/08/09 08:25:52;;;;;;;8.00;2.60;;;;;;;;;;5029424;28;20240;-76
2022/08/09 08:28:19;;;;;;;8.18;2.70;;;;;;;;;;5033058;28;20025;-75
2022/08/09 08:30:45;;;;;;;6.28;3.00;;;;;;;;;;5032353;28;20030;-78
2022/08/09 08:33:11;;;;;;;5.85;2.67;;;;;;;;;;5031916;28;20048;-77
2022/08/09 08:35:36;;;;;;;5.68;2.85;;;;;;;;;;5031997;28;20022;-78
2022/08/09 08:38:02;;;;;;;5.43;2.90;;;;;;;;;;5021958;28;20026;-77
2022/08/09 08:40:28;;;;;;;5.43;2.90;;;;;;;;;;5032909;28;20029;-78
2022/08/09 08:42:53;;;;;;;6.60;2.63;;;;;;;;;;5032486;28;20214;-77
2022/08/09 08:45:28;;;;;;;5.30;2.55;;;;;;;;;;5022771;28;20030;-76
2022/08/09 08:47:53;;;;;;;5.75;2.80;;;;;;;;;;5022909;28;20097;-78
2022/08/09 08:50:18;;;;;;;6.82;2.50;;;;;;;;;;5024916;28;20333;-77
2022/08/09 08:52:47;;;;;;;8.32;2.97;;;;;;;;;;5019845;28;20100;-78
2022/08/09 08:55:14;;;;;;;14.07;2.83;;;;;;;;;;5025838;28;20094;-77
2022/08/09 08:57:41;;;;;;;10.68;2.60;;;;;;;;;;5023794;28;20018;-78
2022/08/09 09:00:09;;;;;;;9.48;3.03;;;;;;;;;;5023285;28;20026;-79
2022/08/09 09:02:35;;;;;;;7.85;2.60;;;;;;;;;;5029724;28;20336;-77
2022/08/09 09:05:00;;;;;;;8.20;2.60;;;;;;;;;;5025246;28;20052;-78
2022/08/09 09:07:29;;;;;;;8.68;2.60;;;;;;;;;;5023121;28;20033;-78
2022/08/09 09:09:55;;;;;;;7.78;2.60;;;;;;;;;;5003061;28;20057;-78
2022/08/09 09:12:25;;;;;;;6.80;2.58;;;;;;;;;;5024688;28;20037;-78
2022/08/09 09:14:51;;;;;;;5.43;2.67;;;;;;;;;;5026820;28;20026;-78
2022/08/09 09:17:18;;;;;;;5.75;2.80;;;;;;;;;;5029934;28;20029;-78
2022/08/09 09:19:44;;;;;;;6.57;3.10;;;;;;;;;;5027130;28;20213;-79
2022/08/09 09:22:15;;;;;;;6.75;3.00;;;;;;;;;;5029230;28;20356;-79
2022/08/09 09:24:44;;;;;;;9.25;3.10;;;;;;;;;;5029612;28;20033;-78
2022/08/09 09:27:16;;;;;;;6.75;2.90;;;;;;;;;;5022727;28;20022;-80
2022/08/09 09:29:43;;;;;;;8.65;3.10;;;;;;;;;;5032104;28;20234;-80
2022/08/09 09:32:08;;;;;;;7.57;3.20;;;;;;;;;;5025890;28;20036;-78
2022/08/09 09:34:35;;;;;;;8.45;3.17;;;;;;;;;;5027422;28;20018;-78
2022/08/09 09:37:04;;;;;;;5.15;2.90;;;;;;;;;;5032522;28;20026;-79
2022/08/09 09:39:31;;;;;;;7.85;3.00;;;;;;;;;;5031237;28;20028;-79
2022/08/09 09:41:58;;;;;;;10.05;3.05;;;;;;;;;;5030331;28;20033;-78
2022/08/09 09:44:31;;;;;;;7.53;2.88;;;;;;;;;;5026361;28;20072;-78
2022/08/09 09:47:15;;;;;;;11.52;3.10;;;;;;;;;;5026976;28;20026;-78
2022/08/09 09:49:49;;;;;;;7.72;3.22;;;;;;;;;;5025787;28;20053;-77
2022/08/09 09:52:17;;;;;;;10.02;3.40;;;;;;;;;;5033237;28;20244;-78
2022/08/09 09:54:46;;;;;;;8.07;2.75;;;;;;;;;;5030705;28;20029;-78
2022/08/09 09:57:19;;;;;;;5.65;2.80;;;;;;;;;;5035312;28;20021;-78
2022/08/09 09:59:46;;;;;;;7.85;2.83;;;;;;;;;;5028867;28;20341;-78
2022/08/09 10:02:12;;;;;;;7.10;2.45;;;;;;;;;;5027467;28;20099;-78
2022/08/09 10:04:40;;;;;;;14.32;2.90;;;;;;;;;;5027248;28;20053;-77
2022/08/09 10:07:24;;;;;;;4.93;2.50;;;;;;;;;;5028060;28;20037;-77
2022/08/09 10:09:54;;;;;;;6.93;2.30;;;;;;;;;;5027186;28;20029;-76
2022/08/09 10:12:32;;;;;;;6.03;2.20;;;;;;;;;;5032856;28;20096;-78
2022/08/09 10:15:14;;;;;;;8.68;2.53;;;;;;;;;;5033477;28;20080;-77
2022/08/09 10:17:42;;;;;;;6.05;2.50;;;;;;;;;;5006168;28;20022;-78
2022/08/09 10:20:20;;;;;;;6.47;2.47;;;;;;;;;;5025322;28;20034;-77
2022/08/09 10:22:47;;;;;;;8.75;3.80;;;;;;;;;;5025647;28;20282;-78
2022/08/09 10:25:13;;;;;;;10.27;2.88;;;;;;;;;;5024965;28;20033;-80
2022/08/09 10:27:40;;;;;;;7.15;2.20;;;;;;;;;;5027974;28;20052;-78
2022/08/09 10:30:07;;;;;;;10.65;2.60;;;;;;;;;;5023732;28;20094;-78
2022/08/09 10:32:33;;;;;;;5.50;2.30;;;;;;;;;;5024429;28;20253;-79
2022/08/09 10:35:00;;;;;;;4.80;2.10;;;;;;;;;;5022537;28;20085;-78
2022/08/09 10:37:26;;;;;;;6.18;2.35;;;;;;;;;;5022875;28;20022;-76
2022/08/09 10:39:52;;;;;;;5.40;2.35;;;;;;;;;;5036402;28;20084;-79
2022/08/09 10:42:18;;;;;;;6.93;2.85;;;;;;;;;;5031729;28;20048;-79
2022/08/09 10:44:48;;;;;;;4.65;2.20;;;;;;;;;;5037215;28;20224;-79
2022/08/09 10:47:48;;;;;;;4.28;2.38;;;;;;;;;;5032905;28;20199;-79
2022/08/09 10:50:22;;;;;;;3.75;2.50;;;;;;;;;;5034299;28;20025;-79
2022/08/09 10:53:04;;;;;;;6.13;2.15;;;;;;;;;;5027385;28;20382;-78
2022/08/09 10:55:32;;;;;;;9.40;2.50;;;;;;;;;;5028782;28;20076;-79
2022/08/09 10:57:58;;;;;;;5.50;2.40;;;;;;;;;;5032579;28;20028;-79
2022/08/09 11:00:35;;;;;;;7.53;2.55;;;;;;;;;;5025277;28;20229;-78
2022/08/09 11:03:02;;;;;;;6.05;2.50;;;;;;;;;;5030934;28;20033;-80
2022/08/09 11:05:27;;;;;;;5.57;2.47;;;;;;;;;;5037362;28;20049;-79
2022/08/09 11:07:53;;;;;;;7.50;2.60;;;;;;;;;;5039405;28;20210;-79
2022/08/09 11:10:47;;;;;;;6.78;3.00;;;;;;;;;;5038950;28;20021;-79
2022/08/09 11:13:14;;;;;;;6.75;2.65;;;;;;;;;;5031235;28;20053;-79
2022/08/09 11:15:39;;;;;;;8.27;2.75;;;;;;;;;;5028910;28;20022;-78
2022/08/09 11:18:04;;;;;;;9.25;2.80;;;;;;;;;;5027860;28;20199;-80
2022/08/09 11:20:44;;;;;;;7.85;2.40;;;;;;;;;;5029064;28;20249;-79
2022/08/09 11:23:10;;;;;;;5.93;2.35;;;;;;;;;;5035586;28;20034;-78
2022/08/09 11:25:38;;;;;;;7.18;2.78;;;;;;;;;;5028990;28;20217;-79
2022/08/09 11:28:31;;;;;;;6.78;2.90;;;;;;;;;;5026421;28;20033;-79
2022/08/09 11:30:57;;;;;;;8.88;2.55;;;;;;;;;;5030164;28;20048;-79
2022/08/09 11:33:47;;;;;;;4.95;2.70;;;;;;;;;;5033186;28;20050;-79
2022/08/09 11:36:14;;;;;;;8.70;3.00;;;;;;;;;;5026069;28;20053;-80
2022/08/09 11:38:40;;;;;;;8.50;2.80;;;;;;;;;;5028920;28;20056;-80
2022/08/09 11:41:12;;;;;;;8.40;2.53;;;;;;;;;;5022302;28;20026;-78
2022/08/09 11:43:45;;;;;;;4.00;2.70;;;;;;;;;;5020403;28;20205;-79
2022/08/09 11:46:10;;;;;;;6.88;2.40;;;;;;;;;;5021008;28;20242;-79
2022/08/09 11:48:56;;;;;;;6.55;2.38;;;;;;;;;;5021511;28;20311;-79
2022/08/09 11:51:24;;;;;;;5.07;2.30;;;;;;;;;;5021998;28;20049;-79
2022/08/09 11:54:16;;;;;;;6.70;2.40;;;;;;;;;;5024976;28;20026;-79
2022/08/09 11:56:41;;;;;;;4.10;2.63;;;;;;;;;;5025823;28;20137;-79
2022/08/09 11:59:08;;;;;;;6.63;2.50;;;;;;;;;;5024576;28;20025;-79
2022/08/09 12:01:42;;;;;;;8.30;2.63;;;;;;;;;;5022926;28;20189;-79
2022/08/09 12:04:16;;;;;;;10.18;2.63;;;;;;;;;;5024997;28;20045;-79
2022/08/09 12:06:54;;;;;;;4.57;2.30;;;;;;;;;;5021697;28;20022;-79
2022/08/09 12:09:30;;;;;;;4.18;2.40;;;;;;;;;;5021296;28;20037;-79
2022/08/09 12:12:00;;;;;;;18.80;3.38;;;;;;;;;;5022823;28;20092;-82
2022/08/09 12:14:30;;;;;;;4.22;2.30;;;;;;;;;;5021475;28;20030;-79
2022/08/09 12:16:56;;;;;;;7.30;2.60;;;;;;;;;;5021823;28;20052;-79
2022/08/09 12:19:28;;;;;;;6.18;2.50;;;;;;;;;;5021223;28;20017;-79
2022/08/09 12:21:59;;;;;;;4.75;2.50;;;;;;;;;;5018610;28;20028;-78
2022/08/09 12:24:24;;;;;;;3.63;2.40;;;;;;;;;;5024852;28;20041;-78
2022/08/09 12:26:55;;;;;;;4.78;2.00;;;;;;;;;;5021129;28;20189;-78
2022/08/09 12:29:24;;;;;;;3.83;2.33;;;;;;;;;;5021587;28;20045;-79
2022/08/09 12:32:04;;;;;;;6.82;2.40;;;;;;;;;;5023184;28;20026;-77
2022/08/09 12:34:41;;;;;;;8.02;2.42;;;;;;;;;;5023699;28;20033;-77
2022/08/09 12:37:10;;;;;;;4.93;2.30;;;;;;;;;;5021723;28;20021;-78
2022/08/09 12:39:36;;;;;;;9.02;3.03;;;;;;;;;;5021366;28;20515;-76
2022/08/09 12:42:08;;;;;;;3.55;2.05;;;;;;;;;;5023290;28;20034;-77
2022/08/09 12:44:36;;;;;;;4.20;2.00;;;;;;;;;;5020913;28;20317;-76
2022/08/09 12:47:02;;;;;;;5.60;2.10;;;;;;;;;;5024177;28;20053;-77
2022/08/09 12:49:28;;;;;;;7.50;2.30;;;;;;;;;;5021040;28;20306;-77
2022/08/09 12:51:55;;;;;;;8.82;2.28;;;;;;;;;;5020401;28;20125;-76
2022/08/09 12:54:20;;;;;;;19.90;2.95;;;;;;;;;;5030983;28;20029;-79
2022/08/09 12:56:48;;;;;;;7.20;2.45;;;;;;;;;;5024431;28;20340;-77
2022/08/09 12:59:16;;;;;;;9.77;2.30;;;;;;;;;;5023471;28;20306;-78
2022/08/09 13:01:44;;;;;;;7.07;2.30;;;;;;;;;;5022393;28;20038;-79
2022/08/09 13:04:13;;;;;;;4.95;2.25;;;;;;;;;;5026648;28;20053;-78
2022/08/09 13:06:44;;;;;;;4.78;2.10;;;;;;;;;;5013983;28;20089;-78
2022/08/09 13:09:09;;;;;;;6.47;2.30;;;;;;;;;;5020503;28;20052;-79
2022/08/09 13:11:40;;;;;;;5.72;2.17;;;;;;;;;;5021948;28;20317;-78
2022/08/09 13:14:11;;;;;;;3.80;2.25;;;;;;;;;;5027471;28;20030;-79
2022/08/09 13:16:39;;;;;;;5.65;2.10;;;;;;;;;;5009334;28;20148;-78
2022/08/09 13:19:05;;;;;;;3.65;2.20;;;;;;;;;;5012518;28;20348;-79
2022/08/09 13:21:31;;;;;;;5.07;2.10;;;;;;;;;;5028057;28;20044;-78
2022/08/09 13:24:08;;;;;;;4.47;2.08;;;;;;;;;;5020572;28;20032;-78
2022/08/09 13:26:40;;;;;;;3.70;2.03;;;;;;;;;;5021082;28;20044;-79
2022/08/09 13:29:18;;;;;;;5.03;1.98;;;;;;;;;;5027312;28;20041;-79
2022/08/09 13:32:05;;;;;;;4.90;2.10;;;;;;;;;;5026483;28;20092;-80
2022/08/09 13:34:36;;;;;;;4.35;1.98;;;;;;;;;;5028105;28;20026;-79
2022/08/09 13:37:04;;;;;;;4.35;2.10;;;;;;;;;;5032065;28;20025;-79
2022/08/09 13:39:31;;;;;;;3.30;2.10;;;;;;;;;;5029755;28;20367;-79
2022/08/09 13:42:08;;;;;;;6.45;2.20;;;;;;;;;;5031075;28;20026;-78
2022/08/09 13:44:34;;;;;;;4.47;2.10;;;;;;;;;;5031836;28;20050;-78
2022/08/09 13:47:01;;;;;;;4.25;2.00;;;;;;;;;;5027266;28;20033;-78
2022/08/09 13:49:27;;;;;;;4.40;2.10;;;;;;;;;;5030140;28;20032;-78
2022/08/09 13:51:52;;;;;;;3.42;2.20;;;;;;;;;;5034130;28;20039;-78
2022/08/09 13:54:18;;;;;;;8.75;2.22;;;;;;;;;;5032132;28;20045;-79
2022/08/09 13:56:43;;;;;;;5.40;2.20;;;;;;;;;;5031196;28;20505;-78
2022/08/09 13:59:08;;;;;;;4.55;2.20;;;;;;;;;;5032323;28;20025;-79
2022/08/09 14:01:34;;;;;;;7.80;2.20;;;;;;;;;;5031816;28;20040;-79
2022/08/09 14:03:59;;;;;;;4.78;2.22;;;;;;;;;;5036664;28;20053;-79
2022/08/09 14:06:25;;;;;;;6.50;2.10;;;;;;;;;;5033119;28;20030;-78
2022/08/09 14:08:50;;;;;;;3.67;1.92;;;;;;;;;;5026894;28;20021;-78
2022/08/09 14:11:16;;;;;;;4.25;2.10;;;;;;;;;;5028418;28;20088;-79
2022/08/09 14:13:41;;;;;;;5.15;2.35;;;;;;;;;;5028860;28;20061;-79
2022/08/09 14:16:09;;;;;;;3.85;1.90;;;;;;;;;;5030631;28;20072;-78
2022/08/09 14:18:34;;;;;;;3.28;2.05;;;;;;;;;;5032781;28;20038;-78
2022/08/09 14:20:59;;;;;;;3.33;2.15;;;;;;;;;;5027557;28;20095;-78
2022/08/09 14:23:25;;;;;;;5.28;2.00;;;;;;;;;;5013177;28;20051;-80
2022/08/09 14:25:53;;;;;;;5.15;2.40;;;;;;;;;;5031986;28;20026;-79
2022/08/09 14:28:18;;;;;;;6.07;2.25;;;;;;;;;;5018700;28;20029;-81
2022/08/09 14:30:44;;;;;;;5.30;2.10;;;;;;;;;;5037771;28;20034;-80
2022/08/09 14:33:09;;;;;;;5.10;2.13;;;;;;;;;;5037567;28;20018;-81
2022/08/09 14:35:47;;;;;;;4.75;2.13;;;;;;;;;;5014319;28;20253;-82
2022/08/09 14:38:12;;;;;;;3.17;2.20;;;;;;;;;;5030406;28;20033;-80
2022/08/09 14:40:37;;;;;;;3.22;2.10;;;;;;;;;;5032833;28;20022;-83
2022/08/09 14:43:03;;;;;;;6.07;2.40;;;;;;;;;;5037943;28;20252;-82
2022/08/09 14:45:28;;;;;;;4.90;2.00;;;;;;;;;;5035383;28;20032;-81
2022/08/09 14:47:54;;;;;;;3.22;2.00;;;;;;;;;;5026147;28;20290;-81
2022/08/09 14:50:19;;;;;;;4.88;2.20;;;;;;;;;;5032459;28;20034;-80